createdAt,value
2023-01-07T00:02:21.083Z,46.20
2023-01-07T00:04:47.552Z,35.13
2023-01-07T00:07:14.016Z,33.47
2023-01-07T00:09:40.430Z,34.28
2023-01-07T00:12:06.907Z,34.95
2023-01-07T00:14:33.322Z,31.42
2023-01-07T00:16:59.738Z,35.65
2023-01-07T00:19:26.170Z,30.75
2023-01-07T00:21:52.743Z,26.95
2023-01-07T00:24:19.203Z,32.67
2023-01-07T00:26:45.797Z,31.05
2023-01-07T00:29:12.882Z,33.78
2023-01-07T00:31:40.638Z,31.63
2023-01-07T00:34:08.930Z,27.77
2023-01-07T00:36:37.487Z,30.75
2023-01-07T00:39:21.932Z,27.10
2023-01-07T00:42:07.231Z,28.27
2023-01-07T00:44:33.996Z,29.40
2023-01-07T00:47:00.884Z,37.55
2023-01-07T00:49:27.497Z,39.90
2023-01-07T00:51:54.007Z,29.77
2023-01-07T00:54:20.622Z,36.38
2023-01-07T00:56:47.043Z,40.67
2023-01-07T00:59:13.571Z,39.55
2023-01-07T01:01:40.169Z,28.38
2023-01-07T01:04:08.228Z,30.63
2023-01-07T01:06:34.729Z,32.40
2023-01-07T01:09:01.143Z,21.35
2023-01-07T01:11:27.565Z,30.40
2023-01-07T01:13:54.055Z,26.45
2023-01-07T01:16:20.753Z,23.15
2023-01-07T01:18:47.233Z,23.13
2023-01-07T01:21:14.528Z,24.50
2023-01-07T01:23:40.947Z,31.35
2023-01-07T01:26:08.303Z,30.73
2023-01-07T01:28:34.874Z,26.77
2023-01-07T01:31:01.375Z,28.00
2023-01-07T01:33:27.903Z,21.98
2023-01-07T01:35:54.286Z,25.08
2023-01-07T01:38:20.780Z,28.40
2023-01-07T01:40:47.356Z,22.27
2023-01-07T01:43:33.081Z,22.83
2023-01-07T01:46:04.718Z,25.92
2023-01-07T01:48:32.839Z,28.20
2023-01-07T01:50:59.871Z,22.92
2023-01-07T01:53:28.682Z,26.52
2023-01-07T01:56:00.594Z,27.95
2023-01-07T01:58:36.148Z,24.02
2023-01-07T02:01:02.758Z,25.27
2023-01-07T02:03:30.288Z,23.58
2023-01-07T02:05:57.018Z,30.38
2023-01-07T02:08:23.737Z,24.88
2023-01-07T02:11:12.982Z,22.60
2023-01-07T02:13:59.725Z,25.33
2023-01-07T02:16:29.395Z,26.75
2023-01-07T02:18:58.667Z,22.67
2023-01-07T02:21:27.662Z,20.30
2023-01-07T02:24:09.172Z,18.88
2023-01-07T02:26:38.471Z,21.80
2023-01-07T02:29:17.991Z,27.85
2023-01-07T02:32:03.071Z,19.35
2023-01-07T02:34:47.689Z,17.85
2023-01-07T02:37:24.211Z,20.23
2023-01-07T02:39:56.404Z,25.15
2023-01-07T02:42:44.354Z,22.20
2023-01-07T02:45:22.617Z,19.58
2023-01-07T02:47:56.790Z,20.58
2023-01-07T02:50:23.237Z,18.30
2023-01-07T02:52:49.727Z,18.13
2023-01-07T02:55:18.036Z,19.50
2023-01-07T02:58:03.348Z,14.38
2023-01-07T03:00:32.569Z,16.75
2023-01-07T03:03:17.924Z,17.83
2023-01-07T03:06:04.588Z,14.80
2023-01-07T03:08:39.490Z,26.13
2023-01-07T03:11:07.864Z,23.08
2023-01-07T03:13:38.447Z,26.23
2023-01-07T03:16:13.844Z,21.98
2023-01-07T03:18:45.076Z,24.20
2023-01-07T03:21:14.009Z,26.30
2023-01-07T03:23:43.666Z,20.35
2023-01-07T03:26:11.000Z,19.85
2023-01-07T03:28:41.492Z,24.88
2023-01-07T03:31:11.458Z,24.55
2023-01-07T03:34:00.326Z,20.23
2023-01-07T03:36:29.706Z,22.77
2023-01-07T03:38:56.710Z,23.95
2023-01-07T03:41:41.920Z,21.08
2023-01-07T03:44:08.420Z,15.52
2023-01-07T03:46:35.428Z,18.10
2023-01-07T03:49:01.876Z,17.77
2023-01-07T03:51:28.413Z,17.90
2023-01-07T03:53:54.860Z,13.18
2023-01-07T03:56:21.254Z,17.50
2023-01-07T03:58:47.707Z,13.05
2023-01-07T04:01:14.333Z,17.25
2023-01-07T04:03:40.771Z,13.77
2023-01-07T04:06:07.211Z,18.67
2023-01-07T04:08:33.682Z,12.60
2023-01-07T04:11:00.147Z,14.60
2023-01-07T04:13:26.579Z,17.20
2023-01-07T04:15:53.023Z,13.73
2023-01-07T04:18:19.445Z,13.43
2023-01-07T04:20:47.340Z,15.23
2023-01-07T04:23:14.804Z,15.48
2023-01-07T04:25:41.548Z,11.75
2023-01-07T04:28:08.356Z,12.35
2023-01-07T04:30:35.507Z,12.68
2023-01-07T04:33:01.983Z,14.00
2023-01-07T04:35:28.388Z,11.43
2023-01-07T04:37:54.801Z,11.70
2023-01-07T04:40:21.222Z,16.15
2023-01-07T04:42:47.661Z,14.02
2023-01-07T04:45:14.136Z,13.93
2023-01-07T04:47:40.573Z,18.42
2023-01-07T04:50:07.274Z,14.40
2023-01-07T04:52:33.749Z,12.43
2023-01-07T04:55:00.185Z,14.90
2023-01-07T04:57:26.580Z,13.57
2023-01-07T04:59:53.060Z,14.00
2023-01-07T05:02:19.620Z,12.57
2023-01-07T05:04:47.704Z,14.05
2023-01-07T05:07:14.532Z,14.95
2023-01-07T05:09:40.931Z,13.02
2023-01-07T05:12:07.448Z,12.93
2023-01-07T05:14:33.885Z,10.95
2023-01-07T05:17:00.401Z,12.63
2023-01-07T05:19:26.878Z,15.75
2023-01-07T05:21:53.308Z,14.45
2023-01-07T05:24:19.728Z,17.40
2023-01-07T05:26:46.236Z,25.52
2023-01-07T05:29:12.753Z,27.35
2023-01-07T05:31:39.224Z,16.88
2023-01-07T05:34:05.625Z,17.05
2023-01-07T05:36:32.139Z,19.85
2023-01-07T05:38:58.603Z,18.75
2023-01-07T05:41:25.030Z,14.23
2023-01-07T05:43:51.497Z,13.93
2023-01-07T05:46:18.052Z,18.35
2023-01-07T05:48:44.666Z,17.02
2023-01-07T05:51:11.108Z,16.83
2023-01-07T05:53:37.649Z,20.67
2023-01-07T05:56:04.260Z,17.85
2023-01-07T05:58:30.747Z,19.70
2023-01-07T06:00:57.141Z,18.58
2023-01-07T06:03:23.652Z,25.63
2023-01-07T06:05:50.128Z,23.00
2023-01-07T06:08:16.631Z,25.80
2023-01-07T06:10:44.360Z,20.27
2023-01-07T06:13:10.797Z,27.00
2023-01-07T06:15:37.395Z,31.77
2023-01-07T06:18:03.926Z,25.63
2023-01-07T06:20:34.567Z,32.15
2023-01-07T06:23:02.852Z,32.30
2023-01-07T06:25:29.419Z,28.52
2023-01-07T06:27:59.401Z,21.73
2023-01-07T06:30:25.941Z,21.15
2023-01-07T06:32:52.375Z,23.35
2023-01-07T06:35:18.915Z,32.13
2023-01-07T06:37:45.321Z,22.55
2023-01-07T06:40:12.875Z,19.08
2023-01-07T06:42:39.384Z,22.35
2023-01-07T06:45:05.967Z,22.67
2023-01-07T06:47:32.383Z,20.27
2023-01-07T06:49:58.783Z,19.13
2023-01-07T06:52:25.293Z,19.92
2023-01-07T06:54:51.723Z,21.75
2023-01-07T06:57:18.145Z,19.70
2023-01-07T06:59:44.768Z,21.95
2023-01-07T07:02:21.759Z,24.60
2023-01-07T07:04:48.397Z,26.23
2023-01-07T07:07:14.899Z,29.35
2023-01-07T07:09:41.497Z,29.80
2023-01-07T07:12:08.355Z,29.33
2023-01-07T07:14:34.877Z,33.13
2023-01-07T07:17:01.354Z,30.50
2023-01-07T07:19:27.841Z,26.63
2023-01-07T07:21:54.275Z,27.00
2023-01-07T07:24:20.743Z,22.20
2023-01-07T07:26:47.142Z,25.00
2023-01-07T07:29:13.609Z,23.88
2023-01-07T07:31:40.143Z,21.67
2023-01-07T07:34:06.769Z,23.70
2023-01-07T07:36:33.295Z,25.88
2023-01-07T07:38:59.836Z,25.58
2023-01-07T07:41:26.285Z,24.42
2023-01-07T07:43:52.783Z,28.60
2023-01-07T07:46:19.288Z,25.02
2023-01-07T07:48:48.213Z,28.27
2023-01-07T07:51:15.111Z,24.92
2023-01-07T07:53:41.535Z,27.02
2023-01-07T07:56:08.745Z,25.92
2023-01-07T07:58:35.307Z,26.85
2023-01-07T08:01:01.949Z,26.98
2023-01-07T08:03:28.434Z,26.88
2023-01-07T08:05:54.899Z,26.95
2023-01-07T08:08:21.406Z,34.35
2023-01-07T08:10:47.977Z,31.20
2023-01-07T08:13:14.405Z,32.67
2023-01-07T08:15:41.291Z,29.00
2023-01-07T08:18:08.709Z,43.95
2023-01-07T08:20:37.494Z,31.13
2023-01-07T08:23:05.215Z,34.72
2023-01-07T08:57:28.340Z,56.50
2023-01-07T11:18:30.002Z,70.15
2023-01-07T15:23:28.691Z,67.90
2023-01-07T15:25:56.630Z,74.20
2023-01-07T15:28:42.154Z,57.28
2023-01-07T15:31:13.781Z,75.82
2023-01-07T15:33:58.886Z,74.20
2023-01-07T15:36:26.237Z,71.20
2023-01-07T15:38:53.846Z,105.47
2023-01-07T15:41:23.351Z,96.10
2023-01-07T15:43:50.680Z,83.22
2023-01-07T15:46:17.326Z,96.22
2023-01-07T15:48:45.129Z,103.57
2023-01-07T15:51:18.227Z,104.90
2023-01-07T15:53:46.282Z,118.43
2023-01-07T15:56:15.074Z,145.88
2023-01-07T15:58:46.536Z,219.45
2023-01-07T16:01:17.294Z,119.88
2023-01-07T16:03:44.715Z,152.07
2023-01-07T16:06:33.918Z,116.40
2023-01-07T16:09:13.666Z,102.00
2023-01-07T16:11:40.765Z,106.00
2023-01-07T16:14:13.918Z,113.05
2023-01-07T16:16:41.024Z,127.95
2023-01-07T16:19:15.576Z,121.63
2023-01-07T16:21:46.804Z,130.90
2023-01-07T16:24:17.248Z,92.68
2023-01-07T16:26:46.145Z,106.28
2023-01-07T16:29:24.259Z,133.98
2023-01-07T16:31:51.575Z,153.00
2023-01-07T16:34:24.180Z,166.73
2023-01-07T16:37:00.606Z,146.32
2023-01-07T16:39:31.258Z,160.88
2023-01-07T16:42:18.861Z,180.63
2023-01-07T16:44:45.239Z,201.02
2023-01-07T16:47:17.559Z,189.90
2023-01-07T16:49:44.684Z,179.73
2023-01-07T16:52:16.156Z,173.27
2023-01-07T16:54:44.318Z,167.02
2023-01-07T16:57:11.485Z,153.57
2023-01-07T16:59:45.280Z,162.40
2023-01-07T17:02:32.565Z,152.85
2023-01-07T17:05:37.140Z,145.15
2023-01-07T17:08:06.312Z,145.57
2023-01-07T17:10:34.115Z,155.05
2023-01-07T17:13:24.310Z,166.15
2023-01-07T17:15:51.073Z,157.80
2023-01-07T17:18:18.570Z,154.32
2023-01-07T17:20:48.945Z,144.48
2023-01-07T17:23:28.236Z,141.68
2023-01-07T17:26:15.124Z,133.45
2023-01-07T17:28:50.030Z,137.35
2023-01-07T17:31:16.598Z,119.18
2023-01-07T17:33:45.064Z,116.45
2023-01-07T17:36:18.530Z,115.13
2023-01-07T17:38:47.561Z,114.82
2023-01-07T17:41:37.192Z,121.20
2023-01-07T17:44:05.126Z,123.55
2023-01-07T17:46:31.648Z,123.18
2023-01-07T17:48:58.679Z,116.60
2023-01-07T17:51:29.384Z,110.63
2023-01-07T17:53:57.622Z,121.13
2023-01-07T17:56:25.434Z,127.25
2023-01-07T17:58:55.174Z,114.50
2023-01-07T18:01:23.755Z,162.48
2023-01-07T18:03:50.890Z,134.27
2023-01-07T18:06:22.425Z,134.52
2023-01-07T18:08:49.967Z,136.40
2023-01-07T18:11:46.468Z,131.70
2023-01-07T18:14:13.501Z,117.15
2023-01-07T18:16:40.936Z,120.95
2023-01-07T18:19:07.485Z,115.40
2023-01-07T18:21:35.423Z,113.13
2023-01-07T18:24:01.901Z,101.13
2023-01-07T18:26:29.578Z,99.40
2023-01-07T18:28:56.071Z,129.43
2023-01-07T18:31:23.348Z,152.13
2023-01-07T18:33:50.042Z,158.00
2023-01-07T18:36:19.375Z,127.68
2023-01-07T18:38:46.600Z,234.50
2023-01-07T18:41:13.057Z,138.68
2023-01-07T18:43:42.370Z,148.93
2023-01-07T18:46:09.569Z,146.80
2023-01-07T18:48:40.439Z,155.25
2023-01-07T18:51:09.208Z,138.15
2023-01-07T18:53:36.385Z,154.80
2023-01-07T18:56:03.701Z,155.38
2023-01-07T18:58:30.892Z,126.13
2023-01-07T19:01:01.570Z,113.85
2023-01-07T19:03:28.077Z,114.40
2023-01-07T19:05:55.272Z,113.88
2023-01-07T19:08:21.707Z,104.05
2023-01-07T19:10:50.368Z,115.13
2023-01-07T19:13:16.823Z,121.70
2023-01-07T19:15:44.417Z,120.13
2023-01-07T19:18:10.905Z,109.72
2023-01-07T19:20:38.066Z,111.05
2023-01-07T19:23:05.252Z,115.53
2023-01-07T19:25:34.424Z,120.70
2023-01-07T19:28:00.869Z,213.80
2023-01-07T19:30:27.319Z,182.10
2023-01-07T19:32:55.192Z,185.27
2023-01-07T19:35:21.801Z,164.55
2023-01-07T19:37:50.855Z,164.70
2023-01-07T19:40:17.492Z,135.77
2023-01-07T19:42:46.318Z,149.05
2023-01-07T19:45:12.729Z,133.75
2023-01-07T19:47:40.210Z,140.38
2023-01-07T19:50:06.978Z,170.02
2023-01-07T19:52:34.473Z,167.82
2023-01-07T19:55:00.906Z,190.13
2023-01-07T19:57:29.038Z,197.45
2023-01-07T19:59:56.302Z,211.07
2023-01-07T20:02:22.956Z,195.00
2023-01-07T20:04:50.256Z,198.65
2023-01-07T20:07:16.648Z,182.13
2023-01-07T20:09:44.798Z,190.45
2023-01-07T20:12:11.223Z,190.60
2023-01-07T20:14:38.499Z,170.30
2023-01-07T20:17:05.092Z,176.32
2023-01-07T20:19:31.615Z,195.60
2023-01-07T20:21:58.773Z,188.80
2023-01-07T20:24:26.375Z,191.02
2023-01-07T20:26:54.692Z,167.00
2023-01-07T20:29:22.125Z,159.93
2023-01-07T20:31:48.595Z,156.65
2023-01-07T20:34:15.778Z,148.32
2023-01-07T20:36:42.241Z,150.95
2023-01-07T20:39:11.289Z,138.18
2023-01-07T20:41:38.875Z,125.85
2023-01-07T20:44:07.720Z,141.30
2023-01-07T20:46:34.887Z,137.02
2023-01-07T20:49:01.693Z,151.05
2023-01-07T20:51:29.844Z,147.70
2023-01-07T20:53:56.344Z,153.00
2023-01-07T20:56:24.198Z,153.65
2023-01-07T20:58:50.973Z,173.75
2023-01-07T21:01:21.358Z,159.20
2023-01-07T21:03:47.863Z,200.45
2023-01-07T21:06:18.399Z,172.55
2023-01-07T21:08:48.224Z,173.40
2023-01-07T21:11:15.961Z,167.73
2023-01-07T21:13:44.391Z,150.30
2023-01-07T21:16:12.277Z,154.77
2023-01-07T21:18:39.456Z,160.57
2023-01-07T21:21:16.205Z,149.25
2023-01-07T21:23:43.399Z,145.85
2023-01-07T21:26:09.928Z,141.88
2023-01-07T21:28:37.426Z,155.40
2023-01-07T21:31:06.118Z,157.70
2023-01-07T21:33:33.734Z,140.95
2023-01-07T21:36:00.176Z,131.82
2023-01-07T21:38:28.243Z,145.73
2023-01-07T21:40:54.655Z,148.77
2023-01-07T21:43:22.089Z,142.63
2023-01-07T21:45:48.581Z,158.85
2023-01-07T21:48:15.010Z,171.68
2023-01-07T21:50:42.061Z,182.88
2023-01-07T21:53:08.531Z,236.60
2023-01-07T21:55:38.119Z,207.48
2023-01-07T21:58:04.638Z,199.95
2023-01-07T22:00:31.874Z,197.75
2023-01-07T22:02:58.352Z,191.90
2023-01-07T22:05:25.459Z,191.18
2023-01-07T22:07:51.924Z,170.27
2023-01-07T22:10:19.306Z,177.63
2023-01-07T22:12:45.700Z,175.70
2023-01-07T22:15:12.896Z,188.13
2023-01-07T22:17:39.355Z,183.27
2023-01-07T22:20:06.841Z,180.45
2023-01-07T22:22:35.780Z,163.60
2023-01-07T22:25:02.195Z,171.43
2023-01-07T22:27:29.848Z,175.10
2023-01-07T22:29:57.691Z,178.73
2023-01-07T22:32:24.799Z,180.95
2023-01-07T22:34:51.194Z,190.98
2023-01-07T22:37:19.623Z,166.63
2023-01-07T22:39:47.872Z,171.82
2023-01-07T22:42:33.656Z,174.00
2023-01-07T22:45:06.467Z,162.00
2023-01-07T22:47:35.629Z,153.68
2023-01-07T22:50:03.744Z,157.45
2023-01-07T22:52:30.305Z,147.88
2023-01-07T22:54:57.145Z,162.38
2023-01-07T22:57:23.659Z,139.85
2023-01-07T22:59:50.346Z,142.65
2023-01-07T23:02:16.756Z,145.90
2023-01-07T23:04:43.627Z,132.57
2023-01-07T23:07:10.048Z,131.65
2023-01-07T23:09:36.495Z,128.70
2023-01-07T23:12:04.072Z,137.45
2023-01-07T23:14:30.664Z,126.22
2023-01-07T23:16:57.351Z,127.80
2023-01-07T23:19:23.834Z,121.03
2023-01-07T23:21:51.483Z,133.38
2023-01-07T23:24:18.439Z,136.38
2023-01-07T23:26:46.022Z,142.10
2023-01-07T23:29:12.469Z,125.93
2023-01-07T23:31:38.960Z,124.93
2023-01-07T23:34:05.496Z,127.70
2023-01-07T23:36:32.408Z,120.63
2023-01-07T23:38:58.911Z,124.57
2023-01-07T23:41:25.340Z,124.43
2023-01-07T23:43:51.829Z,142.30
2023-01-07T23:46:18.356Z,120.68
2023-01-07T23:48:44.848Z,123.30
2023-01-07T23:51:13.036Z,125.40
2023-01-07T23:53:39.935Z,141.18
2023-01-07T23:56:06.677Z,130.30
2023-01-07T23:58:33.724Z,125.68
